sensor_id;sensor_type;location;lat;lon;timestamp;pressure;altitude;pressure_sealevel;temperature;humidity
75039;BME280;63609;49.992;14.512;2023-08-30T00:03:36;97232.31;;;12.13;72.02
75039;BME280;63609;49.992;14.512;2023-08-30T00:06:04;97235.81;;;12.80;70.42
75039;BME280;63609;49.992;14.512;2023-08-30T00:08:32;97236.78;;;13.23;68.34
75039;BME280;63609;49.992;14.512;2023-08-30T00:10:59;97251.97;;;13.38;68.45
75039;BME280;63609;49.992;14.512;2023-08-30T00:13:28;97251.41;;;12.77;70.22
75039;BME280;63609;49.992;14.512;2023-08-30T00:15:59;97246.44;;;12.74;69.39
75039;BME280;63609;49.992;14.512;2023-08-30T00:18:30;97247.25;;;12.89;68.97
75039;BME280;63609;49.992;14.512;2023-08-30T00:20:57;97262.41;;;12.82;69.31
75039;BME280;63609;49.992;14.512;2023-08-30T00:23:28;97255.19;;;12.82;69.16
75039;BME280;63609;49.992;14.512;2023-08-30T00:25:55;97254.00;;;12.85;69.24
75039;BME280;63609;49.992;14.512;2023-08-30T00:28:22;97260.06;;;13.08;68.94
75039;BME280;63609;49.992;14.512;2023-08-30T00:30:54;97251.47;;;12.98;69.51
75039;BME280;63609;49.992;14.512;2023-08-30T00:33:22;97260.16;;;12.71;70.62
75039;BME280;63609;49.992;14.512;2023-08-30T00:35:59;97254.00;;;12.85;70.54
75039;BME280;63609;49.992;14.512;2023-08-30T00:38:27;97254.28;;;12.75;71.10
75039;BME280;63609;49.992;14.512;2023-08-30T00:40:55;97259.97;;;13.02;70.72
75039;BME280;63609;49.992;14.512;2023-08-30T00:43:22;97261.94;;;13.08;70.28
75039;BME280;63609;49.992;14.512;2023-08-30T00:45:49;97258.22;;;13.09;70.34
75039;BME280;63609;49.992;14.512;2023-08-30T00:48:18;97257.69;;;12.84;71.10
75039;BME280;63609;49.992;14.512;2023-08-30T00:50:46;97251.22;;;12.49;72.31
75039;BME280;63609;49.992;14.512;2023-08-30T00:53:14;97255.66;;;12.56;72.58
75039;BME280;63609;49.992;14.512;2023-08-30T00:55:42;97254.34;;;12.67;72.37
75039;BME280;63609;49.992;14.512;2023-08-30T00:58:09;97243.41;;;12.39;72.90
75039;BME280;63609;49.992;14.512;2023-08-30T01:00:38;97251.03;;;12.80;71.51
75039;BME280;63609;49.992;14.512;2023-08-30T01:03:06;97259.16;;;12.86;71.89
75039;BME280;63609;49.992;14.512;2023-08-30T01:05:35;97247.78;;;12.70;72.09
75039;BME280;63609;49.992;14.512;2023-08-30T01:08:03;97247.78;;;12.55;72.35
75039;BME280;63609;49.992;14.512;2023-08-30T01:13:12;97241.31;;;12.64;72.20
75039;BME280;63609;49.992;14.512;2023-08-30T01:15:45;97239.09;;;12.38;73.02
75039;BME280;63609;49.992;14.512;2023-08-30T01:18:16;97234.94;;;11.98;74.32
75039;BME280;63609;49.992;14.512;2023-08-30T01:20:45;97231.53;;;12.04;74.30
75039;BME280;63609;49.992;14.512;2023-08-30T01:23:24;97227.03;;;12.42;73.42
75039;BME280;63609;49.992;14.512;2023-08-30T01:26:08;97227.56;;;12.38;73.18
75039;BME280;63609;49.992;14.512;2023-08-30T01:28:37;97228.59;;;12.14;74.10
75039;BME280;63609;49.992;14.512;2023-08-30T01:31:09;97224.50;;;12.26;74.13
75039;BME280;63609;49.992;14.512;2023-08-30T01:33:40;97226.06;;;11.97;74.82
75039;BME280;63609;49.992;14.512;2023-08-30T01:36:08;97220.63;;;11.91;75.36
75039;BME280;63609;49.992;14.512;2023-08-30T01:38:37;97218.44;;;12.47;73.23
75039;BME280;63609;49.992;14.512;2023-08-30T01:41:07;97217.69;;;12.68;71.70
75039;BME280;63609;49.992;14.512;2023-08-30T01:43:37;97216.00;;;12.22;73.53
75039;BME280;63609;49.992;14.512;2023-08-30T01:46:05;97223.25;;;11.76;75.30
75039;BME280;63609;49.992;14.512;2023-08-30T01:48:34;97212.69;;;12.20;73.39
75039;BME280;63609;49.992;14.512;2023-08-30T01:51:03;97222.97;;;12.46;72.85
75039;BME280;63609;49.992;14.512;2023-08-30T01:53:31;97230.81;;;12.10;73.95
75039;BME280;63609;49.992;14.512;2023-08-30T01:56:00;97226.63;;;11.93;74.05
75039;BME280;63609;49.992;14.512;2023-08-30T01:58:28;97224.59;;;11.72;75.26
75039;BME280;63609;49.992;14.512;2023-08-30T02:00:55;97219.50;;;11.85;74.90
75039;BME280;63609;49.992;14.512;2023-08-30T02:03:23;97221.81;;;11.88;75.40
75039;BME280;63609;49.992;14.512;2023-08-30T02:08:38;97215.09;;;11.92;74.72
75039;BME280;63609;49.992;14.512;2023-08-30T02:11:13;97210.28;;;12.25;73.09
75039;BME280;63609;49.992;14.512;2023-08-30T02:13:42;97208.69;;;11.79;74.70
75039;BME280;63609;49.992;14.512;2023-08-30T02:16:13;97223.44;;;12.12;73.73
75039;BME280;63609;49.992;14.512;2023-08-30T02:18:42;97216.00;;;12.22;73.64
75039;BME280;63609;49.992;14.512;2023-08-30T02:21:09;97212.09;;;12.10;74.26
75039;BME280;63609;49.992;14.512;2023-08-30T02:23:36;97220.31;;;12.09;74.05
75039;BME280;63609;49.992;14.512;2023-08-30T02:26:03;97220.63;;;12.28;73.35
75039;BME280;63609;49.992;14.512;2023-08-30T02:28:30;97224.91;;;12.15;73.98
75039;BME280;63609;49.992;14.512;2023-08-30T02:30:58;97222.25;;;12.15;73.07
75039;BME280;63609;49.992;14.512;2023-08-30T02:33:25;97219.53;;;12.38;72.31
75039;BME280;63609;49.992;14.512;2023-08-30T02:35:52;97219.25;;;12.33;73.30
75039;BME280;63609;49.992;14.512;2023-08-30T02:38:20;97226.25;;;12.34;73.04
75039;BME280;63609;49.992;14.512;2023-08-30T02:40:47;97226.44;;;12.32;73.40
75039;BME280;63609;49.992;14.512;2023-08-30T02:43:17;97222.56;;;12.20;73.66
75039;BME280;63609;49.992;14.512;2023-08-30T02:45:43;97215.91;;;12.16;73.34
75039;BME280;63609;49.992;14.512;2023-08-30T02:48:10;97214.00;;;12.02;73.70
75039;BME280;63609;49.992;14.512;2023-08-30T02:50:40;97216.75;;;11.93;73.97
75039;BME280;63609;49.992;14.512;2023-08-30T02:53:07;97219.63;;;12.88;70.55
75039;BME280;63609;49.992;14.512;2023-08-30T02:55:35;97213.25;;;12.60;71.16
75039;BME280;63609;49.992;14.512;2023-08-30T02:58:02;97220.91;;;12.19;72.34
75039;BME280;63609;49.992;14.512;2023-08-30T03:00:30;97231.06;;;12.23;72.64
75039;BME280;63609;49.992;14.512;2023-08-30T03:02:58;97234.47;;;12.32;71.38
75039;BME280;63609;49.992;14.512;2023-08-30T03:05:25;97229.13;;;12.61;71.08
75039;BME280;63609;49.992;14.512;2023-08-30T03:07:53;97238.16;;;12.16;72.06
75039;BME280;63609;49.992;14.512;2023-08-30T03:10:22;97232.91;;;12.00;72.50
75039;BME280;63609;49.992;14.512;2023-08-30T03:12:49;97238.63;;;12.20;72.91
75039;BME280;63609;49.992;14.512;2023-08-30T03:15:17;97238.44;;;12.21;73.46
75039;BME280;63609;49.992;14.512;2023-08-30T03:17:44;97227.63;;;11.92;74.15
75039;BME280;63609;49.992;14.512;2023-08-30T03:20:12;97230.16;;;12.08;74.31
75039;BME280;63609;49.992;14.512;2023-08-30T03:22:39;97226.63;;;12.08;73.96
75039;BME280;63609;49.992;14.512;2023-08-30T03:25:09;97230.69;;;12.04;73.48
75039;BME280;63609;49.992;14.512;2023-08-30T03:27:38;97235.66;;;12.29;72.43
75039;BME280;63609;49.992;14.512;2023-08-30T03:30:06;97241.13;;;11.76;74.25
75039;BME280;63609;49.992;14.512;2023-08-30T03:32:34;97233.44;;;11.73;73.79
75039;BME280;63609;49.992;14.512;2023-08-30T03:35:02;97237.09;;;11.57;74.87
75039;BME280;63609;49.992;14.512;2023-08-30T03:37:32;97230.31;;;12.07;73.78
75039;BME280;63609;49.992;14.512;2023-08-30T03:40:00;97227.34;;;11.87;73.97
75039;BME280;63609;49.992;14.512;2023-08-30T03:42:29;97234.16;;;11.89;73.58
75039;BME280;63609;49.992;14.512;2023-08-30T03:44:56;97235.06;;;11.82;74.13
75039;BME280;63609;49.992;14.512;2023-08-30T03:47:24;97236.84;;;11.89;73.12
75039;BME280;63609;49.992;14.512;2023-08-30T03:49:51;97234.44;;;11.80;73.75
75039;BME280;63609;49.992;14.512;2023-08-30T03:52:18;97237.84;;;11.65;74.27
75039;BME280;63609;49.992;14.512;2023-08-30T03:54:45;97235.66;;;11.92;73.13
75039;BME280;63609;49.992;14.512;2023-08-30T03:57:13;97241.47;;;11.95;73.62
75039;BME280;63609;49.992;14.512;2023-08-30T03:59:40;97241.19;;;11.90;73.29
75039;BME280;63609;49.992;14.512;2023-08-30T04:02:07;97242.00;;;11.68;74.46
75039;BME280;63609;49.992;14.512;2023-08-30T04:04:33;97248.75;;;12.02;73.53
75039;BME280;63609;49.992;14.512;2023-08-30T04:07:00;97254.34;;;12.15;73.14
75039;BME280;63609;49.992;14.512;2023-08-30T04:09:27;97243.69;;;11.69;74.13
75039;BME280;63609;49.992;14.512;2023-08-30T04:11:54;97253.34;;;11.93;73.91
75039;BME280;63609;49.992;14.512;2023-08-30T04:14:21;97241.47;;;11.95;73.52
75039;BME280;63609;49.992;14.512;2023-08-30T04:16:51;97247.25;;;11.61;74.74
75039;BME280;63609;49.992;14.512;2023-08-30T04:19:18;97237.56;;;11.60;74.83
75039;BME280;63609;49.992;14.512;2023-08-30T04:21:45;97241.66;;;11.48;74.86
75039;BME280;63609;49.992;14.512;2023-08-30T04:24:13;97248.03;;;12.08;73.13
75039;BME280;63609;49.992;14.512;2023-08-30T04:26:41;97245.47;;;11.54;74.48
75039;BME280;63609;49.992;14.512;2023-08-30T04:29:08;97246.88;;;12.10;72.71
75039;BME280;63609;49.992;14.512;2023-08-30T04:31:35;97247.19;;;11.69;74.33
75039;BME280;63609;49.992;14.512;2023-08-30T04:34:02;97255.22;;;11.47;75.14
75039;BME280;63609;49.992;14.512;2023-08-30T04:36:29;97257.66;;;11.56;74.98
75039;BME280;63609;49.992;14.512;2023-08-30T04:38:56;97252.13;;;11.58;75.64
75039;BME280;63609;49.992;14.512;2023-08-30T04:41:30;97252.97;;;11.81;74.75
75039;BME280;63609;49.992;14.512;2023-08-30T04:43:57;97255.38;;;11.68;75.30
75039;BME280;63609;49.992;14.512;2023-08-30T04:46:24;97264.06;;;11.93;74.18
75039;BME280;63609;49.992;14.512;2023-08-30T04:48:51;97262.69;;;12.20;73.52
75039;BME280;63609;49.992;14.512;2023-08-30T04:51:18;97265.31;;;11.82;74.59
75039;BME280;63609;49.992;14.512;2023-08-30T04:53:45;97253.28;;;12.01;73.73
75039;BME280;63609;49.992;14.512;2023-08-30T04:56:13;97259.06;;;11.90;74.77
75039;BME280;63609;49.992;14.512;2023-08-30T04:58:40;97259.72;;;11.69;74.70
75039;BME280;63609;49.992;14.512;2023-08-30T05:01:09;97261.13;;;12.03;73.80
75039;BME280;63609;49.992;14.512;2023-08-30T05:03:39;97258.78;;;11.85;74.30
75039;BME280;63609;49.992;14.512;2023-08-30T05:06:09;97256.03;;;11.47;76.04
75039;BME280;63609;49.992;14.512;2023-08-30T05:08:36;97251.25;;;11.34;75.77
75039;BME280;63609;49.992;14.512;2023-08-30T05:11:04;97263.06;;;11.40;76.74
75039;BME280;63609;49.992;14.512;2023-08-30T05:13:33;97260.69;;;11.76;74.94
75039;BME280;63609;49.992;14.512;2023-08-30T05:16:00;97258.03;;;11.76;74.60
75039;BME280;63609;49.992;14.512;2023-08-30T05:18:27;97257.00;;;11.77;73.92
75039;BME280;63609;49.992;14.512;2023-08-30T05:20:54;97261.44;;;11.62;74.78
75039;BME280;63609;49.992;14.512;2023-08-30T05:23:21;97256.81;;;11.56;75.01
75039;BME280;63609;49.992;14.512;2023-08-30T05:25:48;97262.91;;;11.42;75.49
75039;BME280;63609;49.992;14.512;2023-08-30T05:28:16;97261.25;;;11.63;74.48
75039;BME280;63609;49.992;14.512;2023-08-30T05:30:44;97269.78;;;11.90;73.64
75039;BME280;63609;49.992;14.512;2023-08-30T05:33:23;97267.91;;;12.13;73.12
75039;BME280;63609;49.992;14.512;2023-08-30T05:36:02;97271.44;;;11.91;73.90
75039;BME280;63609;49.992;14.512;2023-08-30T05:38:52;97272.13;;;12.08;73.22
75039;BME280;63609;49.992;14.512;2023-08-30T05:41:31;97270.97;;;11.87;73.71
75039;BME280;63609;49.992;14.512;2023-08-30T05:43:59;97266.19;;;11.97;73.31
75039;BME280;63609;49.992;14.512;2023-08-30T05:46:26;97268.22;;;12.18;73.01
75039;BME280;63609;49.992;14.512;2023-08-30T05:48:53;97273.00;;;11.85;73.98
75039;BME280;63609;49.992;14.512;2023-08-30T05:51:22;97267.50;;;11.56;74.75
75039;BME280;63609;49.992;14.512;2023-08-30T05:53:51;97276.25;;;11.73;74.44
75039;BME280;63609;49.992;14.512;2023-08-30T05:56:18;97280.41;;;11.52;75.46
75039;BME280;63609;49.992;14.512;2023-08-30T05:58:45;97283.88;;;11.84;74.36
75039;BME280;63609;49.992;14.512;2023-08-30T06:01:13;97275.00;;;11.60;75.19
75039;BME280;63609;49.992;14.512;2023-08-30T06:03:40;97281.31;;;11.36;75.74
75039;BME280;63609;49.992;14.512;2023-08-30T06:06:07;97277.31;;;11.32;76.44
75039;BME280;63609;49.992;14.512;2023-08-30T06:08:35;97277.03;;;11.27;77.26
75039;BME280;63609;49.992;14.512;2023-08-30T06:11:04;97274.22;;;11.21;77.16
75039;BME280;63609;49.992;14.512;2023-08-30T06:13:31;97280.69;;;10.87;77.95
75039;BME280;63609;49.992;14.512;2023-08-30T06:15:58;97274.22;;;11.21;77.78
75039;BME280;63609;49.992;14.512;2023-08-30T06:18:29;97279.25;;;11.16;77.55
75039;BME280;63609;49.992;14.512;2023-08-30T06:20:56;97290.25;;;11.21;78.18
75039;BME280;63609;49.992;14.512;2023-08-30T06:23:23;97279.03;;;11.25;78.02
75039;BME280;63609;49.992;14.512;2023-08-30T06:25:57;97287.81;;;11.11;78.26
75039;BME280;63609;49.992;14.512;2023-08-30T06:28:24;97290.81;;;11.39;77.78
75039;BME280;63609;49.992;14.512;2023-08-30T06:30:51;97279.47;;;10.98;78.03
75039;BME280;63609;49.992;14.512;2023-08-30T06:33:18;97286.28;;;11.09;78.93
75039;BME280;63609;49.992;14.512;2023-08-30T06:35:48;97287.47;;;10.98;79.64
75039;BME280;63609;49.992;14.512;2023-08-30T06:38:16;97285.00;;;10.88;78.95
75039;BME280;63609;49.992;14.512;2023-08-30T06:40:47;97285.16;;;11.34;78.69
75039;BME280;63609;49.992;14.512;2023-08-30T06:43:14;97281.66;;;11.33;77.18
75039;BME280;63609;49.992;14.512;2023-08-30T06:45:44;97290.38;;;11.58;76.97
75039;BME280;63609;49.992;14.512;2023-08-30T06:48:11;97294.28;;;11.48;77.12
75039;BME280;63609;49.992;14.512;2023-08-30T06:50:38;97288.19;;;11.62;76.34
75039;BME280;63609;49.992;14.512;2023-08-30T06:53:07;97289.94;;;11.78;76.79
75039;BME280;63609;49.992;14.512;2023-08-30T06:55:35;97290.84;;;12.30;74.86
75039;BME280;63609;49.992;14.512;2023-08-30T06:58:05;97292.69;;;12.07;75.20
75039;BME280;63609;49.992;14.512;2023-08-30T07:00:33;97302.28;;;12.02;76.05
75039;BME280;63609;49.992;14.512;2023-08-30T07:03:00;97299.31;;;11.96;75.19
75039;BME280;63609;49.992;14.512;2023-08-30T07:05:27;97296.78;;;11.49;77.26
75039;BME280;63609;49.992;14.512;2023-08-30T07:07:54;97304.84;;;11.41;77.87
75039;BME280;63609;49.992;14.512;2023-08-30T07:10:21;97292.25;;;11.81;76.64
75039;BME280;63609;49.992;14.512;2023-08-30T07:12:48;97284.63;;;11.92;76.47
75039;BME280;63609;49.992;14.512;2023-08-30T07:15:15;97287.66;;;11.66;77.76
75039;BME280;63609;49.992;14.512;2023-08-30T07:17:43;97292.06;;;11.82;77.55
75039;BME280;63609;49.992;14.512;2023-08-30T07:20:21;97286.84;;;11.89;76.71
75039;BME280;63609;49.992;14.512;2023-08-30T07:22:48;97287.44;;;11.76;76.98
75039;BME280;63609;49.992;14.512;2023-08-30T07:25:14;97287.47;;;11.68;77.00
75039;BME280;63609;49.992;14.512;2023-08-30T07:27:42;97295.09;;;11.79;76.95
75039;BME280;63609;49.992;14.512;2023-08-30T07:30:10;97296.75;;;11.57;77.49
75039;BME280;63609;49.992;14.512;2023-08-30T07:32:37;97297.13;;;11.77;76.71
75039;BME280;63609;49.992;14.512;2023-08-30T07:35:05;97296.53;;;11.90;76.32
75039;BME280;63609;49.992;14.512;2023-08-30T07:37:33;97300.72;;;12.07;75.61
75039;BME280;63609;49.992;14.512;2023-08-30T07:40:02;97314.88;;;11.93;76.62
75039;BME280;63609;49.992;14.512;2023-08-30T07:42:31;97303.34;;;11.92;77.11
75039;BME280;63609;49.992;14.512;2023-08-30T07:44:58;97309.19;;;12.42;75.49
75039;BME280;63609;49.992;14.512;2023-08-30T07:47:25;97300.00;;;12.36;75.34
75039;BME280;63609;49.992;14.512;2023-08-30T07:49:52;97302.22;;;12.10;75.57
75039;BME280;63609;49.992;14.512;2023-08-30T07:52:19;97303.56;;;12.06;75.26
75039;BME280;63609;49.992;14.512;2023-08-30T07:55:07;97303.72;;;12.12;74.66
75039;BME280;63609;49.992;14.512;2023-08-30T07:57:33;97313.75;;;12.10;74.97
75039;BME280;63609;49.992;14.512;2023-08-30T08:00:01;97315.38;;;12.42;75.08
75039;BME280;63609;49.992;14.512;2023-08-30T08:02:39;97314.94;;;12.68;72.78
75039;BME280;63609;49.992;14.512;2023-08-30T08:05:06;97311.78;;;12.65;73.47
75039;BME280;63609;49.992;14.512;2023-08-30T08:07:33;97322.00;;;12.46;73.04
75039;BME280;63609;49.992;14.512;2023-08-30T08:10:00;97313.53;;;12.72;72.26
75039;BME280;63609;49.992;14.512;2023-08-30T08:12:28;97319.53;;;12.59;72.16
75039;BME280;63609;49.992;14.512;2023-08-30T08:14:55;97319.47;;;12.82;72.07
75039;BME280;63609;49.992;14.512;2023-08-30T08:17:22;97317.41;;;12.70;72.20
75039;BME280;63609;49.992;14.512;2023-08-30T08:19:49;97309.38;;;12.55;72.11
75039;BME280;63609;49.992;14.512;2023-08-30T08:22:17;97312.38;;;12.75;71.28
75039;BME280;63609;49.992;14.512;2023-08-30T08:24:44;97309.94;;;13.53;69.79
75039;BME280;63609;49.992;14.512;2023-08-30T08:27:12;97319.88;;;13.23;69.53
75039;BME280;63609;49.992;14.512;2023-08-30T08:29:41;97319.50;;;13.41;70.13
75039;BME280;63609;49.992;14.512;2023-08-30T08:32:08;97322.81;;;13.29;70.90
75039;BME280;63609;49.992;14.512;2023-08-30T08:34:35;97327.88;;;13.53;69.35
75039;BME280;63609;49.992;14.512;2023-08-30T08:37:02;97334.34;;;13.00;71.37
75039;BME280;63609;49.992;14.512;2023-08-30T08:39:30;97331.09;;;13.04;69.74
75039;BME280;63609;49.992;14.512;2023-08-30T08:41:58;97331.44;;;13.39;69.85
75039;BME280;63609;49.992;14.512;2023-08-30T08:44:27;97329.06;;;13.87;69.07
75039;BME280;63609;49.992;14.512;2023-08-30T08:46:58;97321.78;;;13.80;68.43
75039;BME280;63609;49.992;14.512;2023-08-30T08:49:27;97323.97;;;13.56;69.07
75039;BME280;63609;49.992;14.512;2023-08-30T08:51:56;97325.88;;;14.12;68.78
75039;BME280;63609;49.992;14.512;2023-08-30T08:54:23;97324.66;;;14.64;65.83
75039;BME280;63609;49.992;14.512;2023-08-30T08:56:55;97324.47;;;14.02;69.28
75039;BME280;63609;49.992;14.512;2023-08-30T08:59:23;97323.25;;;14.40;68.00
75039;BME280;63609;49.992;14.512;2023-08-30T09:01:51;97319.00;;;14.53;65.53
75039;BME280;63609;49.992;14.512;2023-08-30T09:04:18;97322.03;;;14.22;65.91
75039;BME280;63609;49.992;14.512;2023-08-30T09:06:49;97327.22;;;14.72;64.96
75039;BME280;63609;49.992;14.512;2023-08-30T09:09:16;97329.69;;;14.74;64.14
75039;BME280;63609;49.992;14.512;2023-08-30T09:11:48;97327.06;;;14.81;65.42
75039;BME280;63609;49.992;14.512;2023-08-30T09:14:18;97329.38;;;14.13;66.22
75039;BME280;63609;49.992;14.512;2023-08-30T09:16:59;97326.69;;;14.13;66.95
75039;BME280;63609;49.992;14.512;2023-08-30T09:19:28;97323.53;;;14.31;65.89
75039;BME280;63609;49.992;14.512;2023-08-30T09:21:59;97327.88;;;14.81;64.76
75039;BME280;63609;49.992;14.512;2023-08-30T09:24:38;97331.34;;;14.26;65.72
75039;BME280;63609;49.992;14.512;2023-08-30T09:27:09;97326.31;;;14.16;66.53
75039;BME280;63609;49.992;14.512;2023-08-30T09:29:36;97334.44;;;14.72;65.16
75039;BME280;63609;49.992;14.512;2023-08-30T09:32:03;97329.88;;;14.23;65.98
75039;BME280;63609;49.992;14.512;2023-08-30T09:34:30;97337.09;;;14.23;66.67
75039;BME280;63609;49.992;14.512;2023-08-30T09:36:57;97338.56;;;14.25;67.73
75039;BME280;63609;49.992;14.512;2023-08-30T09:39:30;97338.47;;;13.61;69.11
75039;BME280;63609;49.992;14.512;2023-08-30T09:41:59;97334.41;;;13.65;69.09
75039;BME280;63609;49.992;14.512;2023-08-30T09:44:29;97338.41;;;13.54;69.25
75039;BME280;63609;49.992;14.512;2023-08-30T09:46:57;97329.94;;;14.08;69.42
75039;BME280;63609;49.992;14.512;2023-08-30T09:49:26;97334.91;;;14.33;66.45
75039;BME280;63609;49.992;14.512;2023-08-30T09:51:54;97336.31;;;14.07;66.61
75039;BME280;63609;49.992;14.512;2023-08-30T09:54:23;97330.56;;;14.10;67.42
75039;BME280;63609;49.992;14.512;2023-08-30T09:56:53;97340.63;;;14.44;65.65
75039;BME280;63609;49.992;14.512;2023-08-30T09:59:22;97333.34;;;14.17;65.69
75039;BME280;63609;49.992;14.512;2023-08-30T10:01:50;97336.22;;;14.37;66.73
75039;BME280;63609;49.992;14.512;2023-08-30T10:04:20;97335.78;;;13.97;66.17
75039;BME280;63609;49.992;14.512;2023-08-30T10:06:49;97334.38;;;14.01;66.92
75039;BME280;63609;49.992;14.512;2023-08-30T10:09:16;97338.31;;;14.20;65.49
75039;BME280;63609;49.992;14.512;2023-08-30T10:11:46;97340.78;;;14.00;66.40
75039;BME280;63609;49.992;14.512;2023-08-30T10:14:14;97336.47;;;14.42;64.24
75039;BME280;63609;49.992;14.512;2023-08-30T10:16:48;97340.50;;;14.31;64.93
75039;BME280;63609;49.992;14.512;2023-08-30T10:19:25;97328.41;;;14.21;64.54
75039;BME280;63609;49.992;14.512;2023-08-30T10:22:04;97336.47;;;14.42;64.94
75039;BME280;63609;49.992;14.512;2023-08-30T10:24:36;97332.38;;;14.25;66.34
75039;BME280;63609;49.992;14.512;2023-08-30T10:27:26;97336.84;;;14.39;66.23
75039;BME280;63609;49.992;14.512;2023-08-30T10:29:55;97330.06;;;14.43;66.06
75039;BME280;63609;49.992;14.512;2023-08-30T10:32:22;97338.50;;;14.68;66.01
75039;BME280;63609;49.992;14.512;2023-08-30T10:34:51;97341.44;;;15.01;64.47
75039;BME280;63609;49.992;14.512;2023-08-30T10:37:26;97340.28;;;14.54;65.10
75039;BME280;63609;49.992;14.512;2023-08-30T10:39:59;97335.75;;;14.83;64.64
75039;BME280;63609;49.992;14.512;2023-08-30T10:42:28;97342.34;;;14.80;64.33
75039;BME280;63609;49.992;14.512;2023-08-30T10:45:05;97333.97;;;14.68;64.64
75039;BME280;63609;49.992;14.512;2023-08-30T10:47:36;97336.94;;;14.73;63.50
75039;BME280;63609;49.992;14.512;2023-08-30T10:50:06;97339.91;;;14.85;63.74
75039;BME280;63609;49.992;14.512;2023-08-30T10:52:34;97338.72;;;14.94;63.08
75039;BME280;63609;49.992;14.512;2023-08-30T10:55:09;97340.91;;;15.47;61.84
75039;BME280;63609;49.992;14.512;2023-08-30T10:57:37;97329.13;;;15.54;62.11
75039;BME280;63609;49.992;14.512;2023-08-30T11:02:37;97334.72;;;16.00;60.41
75039;BME280;63609;49.992;14.512;2023-08-30T11:05:08;97338.47;;;16.13;60.30
75039;BME280;63609;49.992;14.512;2023-08-30T11:07:35;97331.00;;;16.21;59.04
75039;BME280;63609;49.992;14.512;2023-08-30T11:10:06;97331.00;;;16.21;58.55
75039;BME280;63609;49.992;14.512;2023-08-30T11:12:33;97325.03;;;16.33;59.82
75039;BME280;63609;49.992;14.512;2023-08-30T11:15:02;97325.25;;;16.44;60.21
75039;BME280;63609;49.992;14.512;2023-08-30T11:17:29;97314.66;;;16.23;58.51
75039;BME280;63609;49.992;14.512;2023-08-30T11:19:58;97318.59;;;16.60;59.43
75039;BME280;63609;49.992;14.512;2023-08-30T11:22:32;97310.63;;;17.24;56.27
75039;BME280;63609;49.992;14.512;2023-08-30T11:24:59;97308.69;;;17.58;55.47
75039;BME280;63609;49.992;14.512;2023-08-30T11:27:27;97301.97;;;17.74;53.46
75039;BME280;63609;49.992;14.512;2023-08-30T11:29:59;97316.28;;;17.10;55.21
75039;BME280;63609;49.992;14.512;2023-08-30T11:32:26;97307.97;;;17.76;52.92
75039;BME280;63609;49.992;14.512;2023-08-30T11:34:57;97309.03;;;17.10;54.18
75039;BME280;63609;49.992;14.512;2023-08-30T11:37:26;97310.09;;;16.30;56.34
75039;BME280;63609;49.992;14.512;2023-08-30T11:39:55;97306.78;;;17.01;54.59
75039;BME280;63609;49.992;14.512;2023-08-30T11:42:23;97301.72;;;17.82;52.16
75039;BME280;63609;49.992;14.512;2023-08-30T11:44:51;97302.91;;;18.24;51.84
75039;BME280;63609;49.992;14.512;2023-08-30T11:47:19;97306.47;;;18.18;49.74
75039;BME280;63609;49.992;14.512;2023-08-30T11:49:48;97304.38;;;17.89;50.35
75039;BME280;63609;49.992;14.512;2023-08-30T11:52:17;97302.94;;;17.86;49.51
75039;BME280;63609;49.992;14.512;2023-08-30T11:54:44;97296.91;;;17.84;51.33
75039;BME280;63609;49.992;14.512;2023-08-30T11:57:11;97298.22;;;17.75;51.60
75039;BME280;63609;49.992;14.512;2023-08-30T11:59:38;97304.31;;;18.58;50.40
75039;BME280;63609;49.992;14.512;2023-08-30T12:02:09;97307.25;;;18.57;50.22
75039;BME280;63609;49.992;14.512;2023-08-30T12:04:43;97301.59;;;18.83;48.47
75039;BME280;63609;49.992;14.512;2023-08-30T12:07:21;97303.75;;;19.24;45.98
75039;BME280;63609;49.992;14.512;2023-08-30T12:09:49;97300.38;;;18.61;49.00
75039;BME280;63609;49.992;14.512;2023-08-30T12:12:16;97303.25;;;18.84;48.26
75039;BME280;63609;49.992;14.512;2023-08-30T12:14:43;97301.59;;;18.83;47.22
75039;BME280;63609;49.992;14.512;2023-08-30T12:17:10;97304.66;;;18.93;46.61
75039;BME280;63609;49.992;14.512;2023-08-30T12:19:39;97292.19;;;18.42;46.86
75039;BME280;63609;49.992;14.512;2023-08-30T12:22:09;97291.19;;;17.74;48.25
75039;BME280;63609;49.992;14.512;2023-08-30T12:24:46;97291.28;;;17.41;52.25
75039;BME280;63609;49.992;14.512;2023-08-30T12:27:14;97291.81;;;17.11;49.95
75039;BME280;63609;49.992;14.512;2023-08-30T12:29:42;97293.50;;;16.86;50.92
75039;BME280;63609;49.992;14.512;2023-08-30T12:32:08;97289.81;;;17.45;50.77
75039;BME280;63609;49.992;14.512;2023-08-30T12:34:38;97295.28;;;17.25;49.75
75039;BME280;63609;49.992;14.512;2023-08-30T12:37:05;97294.63;;;17.36;50.08
75039;BME280;63609;49.992;14.512;2023-08-30T12:39:32;97287.72;;;17.47;48.33
75039;BME280;63609;49.992;14.512;2023-08-30T12:42:00;97291.25;;;18.24;48.45
75039;BME280;63609;49.992;14.512;2023-08-30T12:44:27;97294.34;;;18.59;47.56
75039;BME280;63609;49.992;14.512;2023-08-30T12:46:54;97282.38;;;18.48;47.72
75039;BME280;63609;49.992;14.512;2023-08-30T12:49:21;97279.06;;;18.71;47.44
75039;BME280;63609;49.992;14.512;2023-08-30T12:51:48;97282.22;;;19.11;47.58
75039;BME280;63609;49.992;14.512;2023-08-30T12:54:14;97271.47;;;19.41;46.53
75039;BME280;63609;49.992;14.512;2023-08-30T12:56:41;97285.19;;;19.03;45.29
75039;BME280;63609;49.992;14.512;2023-08-30T12:59:08;97282.72;;;19.56;45.40
75039;BME280;63609;49.992;14.512;2023-08-30T13:01:35;97283.53;;;19.75;45.53
75039;BME280;63609;49.992;14.512;2023-08-30T13:04:05;97281.19;;;19.79;45.51
75039;BME280;63609;49.992;14.512;2023-08-30T13:06:32;97273.16;;;20.02;45.09
75039;BME280;63609;49.992;14.512;2023-08-30T13:08:59;97276.75;;;19.84;44.64